sensor_id;sensor_type;location;lat;lon;timestamp;P1;durP1;ratioP1;P2;durP2;ratioP2
20154;SDS011;10238;49.556;10.956;2023-06-24T00:01:31;6.60;;;6.05;;
20154;SDS011;10238;49.556;10.956;2023-06-24T00:04:19;6.70;;;6.10;;
20154;SDS011;10238;49.556;10.956;2023-06-24T00:07:09;6.00;;;5.40;;
20154;SDS011;10238;49.556;10.956;2023-06-24T00:09:58;5.80;;;5.25;;
20154;SDS011;10238;49.556;10.956;2023-06-24T00:12:46;8.43;;;4.90;;
20154;SDS011;10238;49.556;10.956;2023-06-24T00:15:33;4.70;;;4.15;;
20154;SDS011;10238;49.556;10.956;2023-06-24T00:18:21;5.32;;;4.70;;
20154;SDS011;10238;49.556;10.956;2023-06-24T00:21:10;5.30;;;4.80;;
20154;SDS011;10238;49.556;10.956;2023-06-24T00:23:58;4.85;;;4.45;;
20154;SDS011;10238;49.556;10.956;2023-06-24T00:26:51;5.70;;;4.90;;
20154;SDS011;10238;49.556;10.956;2023-06-24T00:29:39;5.97;;;4.93;;
20154;SDS011;10238;49.556;10.956;2023-06-24T00:32:26;5.53;;;5.00;;
20154;SDS011;10238;49.556;10.956;2023-06-24T00:35:14;5.93;;;5.43;;
20154;SDS011;10238;49.556;10.956;2023-06-24T00:38:02;5.88;;;5.25;;
20154;SDS011;10238;49.556;10.956;2023-06-24T00:40:49;6.18;;;5.57;;
20154;SDS011;10238;49.556;10.956;2023-06-24T00:43:38;7.40;;;6.80;;
20154;SDS011;10238;49.556;10.956;2023-06-24T00:46:27;7.97;;;7.25;;
20154;SDS011;10238;49.556;10.956;2023-06-24T00:49:17;7.80;;;7.10;;
20154;SDS011;10238;49.556;10.956;2023-06-24T00:52:05;8.88;;;8.18;;
20154;SDS011;10238;49.556;10.956;2023-06-24T00:55:01;8.98;;;8.18;;
20154;SDS011;10238;49.556;10.956;2023-06-24T00:57:50;8.15;;;7.55;;
20154;SDS011;10238;49.556;10.956;2023-06-24T01:00:41;7.75;;;7.18;;
20154;SDS011;10238;49.556;10.956;2023-06-24T01:03:31;8.48;;;7.57;;
20154;SDS011;10238;49.556;10.956;2023-06-24T01:06:23;8.07;;;7.47;;
20154;SDS011;10238;49.556;10.956;2023-06-24T01:09:14;8.07;;;7.47;;
20154;SDS011;10238;49.556;10.956;2023-06-24T01:12:03;8.43;;;7.82;;
20154;SDS011;10238;49.556;10.956;2023-06-24T01:14:52;8.23;;;7.53;;
20154;SDS011;10238;49.556;10.956;2023-06-24T01:17:43;7.93;;;7.18;;
20154;SDS011;10238;49.556;10.956;2023-06-24T01:20:49;7.82;;;7.13;;
20154;SDS011;10238;49.556;10.956;2023-06-24T01:23:55;7.07;;;6.40;;
20154;SDS011;10238;49.556;10.956;2023-06-24T01:27:17;6.68;;;6.07;;
20154;SDS011;10238;49.556;10.956;2023-06-24T01:30:38;5.65;;;5.15;;
20154;SDS011;10238;49.556;10.956;2023-06-24T01:33:45;6.30;;;5.07;;
20154;SDS011;10238;49.556;10.956;2023-06-24T01:36:42;5.95;;;5.32;;
20154;SDS011;10238;49.556;10.956;2023-06-24T01:39:44;5.82;;;5.28;;
20154;SDS011;10238;49.556;10.956;2023-06-24T01:42:37;6.15;;;5.57;;
20154;SDS011;10238;49.556;10.956;2023-06-24T01:45:29;6.50;;;5.95;;
20154;SDS011;10238;49.556;10.956;2023-06-24T01:48:27;7.43;;;6.80;;
20154;SDS011;10238;49.556;10.956;2023-06-24T01:51:22;8.18;;;7.40;;
20154;SDS011;10238;49.556;10.956;2023-06-24T01:54:13;7.88;;;7.30;;
20154;SDS011;10238;49.556;10.956;2023-06-24T01:59:54;8.57;;;6.18;;
20154;SDS011;10238;49.556;10.956;2023-06-24T02:02:45;6.88;;;6.28;;
20154;SDS011;10238;49.556;10.956;2023-06-24T02:05:35;6.53;;;5.82;;
20154;SDS011;10238;49.556;10.956;2023-06-24T02:11:22;8.27;;;5.38;;
20154;SDS011;10238;49.556;10.956;2023-06-24T02:14:13;6.18;;;5.07;;
20154;SDS011;10238;49.556;10.956;2023-06-24T02:17:04;7.55;;;4.65;;
20154;SDS011;10238;49.556;10.956;2023-06-24T02:19:57;5.88;;;4.88;;
20154;SDS011;10238;49.556;10.956;2023-06-24T02:22:45;4.97;;;4.47;;
20154;SDS011;10238;49.556;10.956;2023-06-24T02:25:35;5.40;;;4.90;;
20154;SDS011;10238;49.556;10.956;2023-06-24T02:28:30;5.28;;;4.78;;
20154;SDS011;10238;49.556;10.956;2023-06-24T02:31:19;5.45;;;4.95;;
20154;SDS011;10238;49.556;10.956;2023-06-24T02:34:07;7.35;;;5.43;;
20154;SDS011;10238;49.556;10.956;2023-06-24T02:36:56;5.43;;;4.95;;
20154;SDS011;10238;49.556;10.956;2023-06-24T02:39:46;7.13;;;6.20;;
20154;SDS011;10238;49.556;10.956;2023-06-24T02:42:35;6.75;;;6.15;;
20154;SDS011;10238;49.556;10.956;2023-06-24T02:45:22;7.93;;;7.22;;
20154;SDS011;10238;49.556;10.956;2023-06-24T02:48:10;8.65;;;7.97;;
20154;SDS011;10238;49.556;10.956;2023-06-24T02:51:00;8.20;;;7.50;;
20154;SDS011;10238;49.556;10.956;2023-06-24T02:53:52;8.73;;;8.02;;
20154;SDS011;10238;49.556;10.956;2023-06-24T02:56:41;9.07;;;8.38;;
20154;SDS011;10238;49.556;10.956;2023-06-24T02:59:31;8.68;;;8.07;;
20154;SDS011;10238;49.556;10.956;2023-06-24T03:02:19;8.02;;;7.43;;
20154;SDS011;10238;49.556;10.956;2023-06-24T03:05:08;8.20;;;7.60;;
20154;SDS011;10238;49.556;10.956;2023-06-24T03:08:00;8.80;;;7.20;;
20154;SDS011;10238;49.556;10.956;2023-06-24T03:10:49;7.45;;;6.30;;
20154;SDS011;10238;49.556;10.956;2023-06-24T03:13:37;7.55;;;6.57;;
20154;SDS011;10238;49.556;10.956;2023-06-24T03:16:29;7.20;;;6.13;;
20154;SDS011;10238;49.556;10.956;2023-06-24T03:19:16;5.60;;;5.10;;
20154;SDS011;10238;49.556;10.956;2023-06-24T03:22:04;6.40;;;4.75;;
20154;SDS011;10238;49.556;10.956;2023-06-24T03:24:52;6.38;;;4.93;;
20154;SDS011;10238;49.556;10.956;2023-06-24T03:27:39;6.75;;;5.00;;
20154;SDS011;10238;49.556;10.956;2023-06-24T03:30:27;7.28;;;4.70;;
20154;SDS011;10238;49.556;10.956;2023-06-24T03:33:17;5.15;;;4.45;;
20154;SDS011;10238;49.556;10.956;2023-06-24T03:36:04;7.20;;;4.53;;
20154;SDS011;10238;49.556;10.956;2023-06-24T03:38:52;5.65;;;4.78;;
20154;SDS011;10238;49.556;10.956;2023-06-24T03:41:40;6.00;;;4.32;;
20154;SDS011;10238;49.556;10.956;2023-06-24T03:44:28;4.85;;;4.35;;
20154;SDS011;10238;49.556;10.956;2023-06-24T03:47:16;5.38;;;4.43;;
20154;SDS011;10238;49.556;10.956;2023-06-24T03:50:05;5.13;;;4.60;;
20154;SDS011;10238;49.556;10.956;2023-06-24T03:52:54;4.38;;;3.92;;
20154;SDS011;10238;49.556;10.956;2023-06-24T03:55:41;5.30;;;4.50;;
20154;SDS011;10238;49.556;10.956;2023-06-24T03:58:29;9.30;;;4.80;;
20154;SDS011;10238;49.556;10.956;2023-06-24T04:01:16;6.03;;;4.65;;
20154;SDS011;10238;49.556;10.956;2023-06-24T04:04:04;4.97;;;4.47;;
20154;SDS011;10238;49.556;10.956;2023-06-24T04:06:54;5.85;;;4.25;;
20154;SDS011;10238;49.556;10.956;2023-06-24T04:09:42;6.35;;;4.40;;
20154;SDS011;10238;49.556;10.956;2023-06-24T04:12:30;5.95;;;4.47;;
20154;SDS011;10238;49.556;10.956;2023-06-24T04:15:17;4.93;;;4.07;;
20154;SDS011;10238;49.556;10.956;2023-06-24T04:18:05;4.80;;;4.35;;
20154;SDS011;10238;49.556;10.956;2023-06-24T04:20:52;9.40;;;4.53;;
20154;SDS011;10238;49.556;10.956;2023-06-24T04:23:41;4.82;;;4.32;;
20154;SDS011;10238;49.556;10.956;2023-06-24T04:26:29;5.05;;;4.50;;
20154;SDS011;10238;49.556;10.956;2023-06-24T04:29:17;6.07;;;4.13;;
20154;SDS011;10238;49.556;10.956;2023-06-24T04:32:05;6.32;;;4.65;;
20154;SDS011;10238;49.556;10.956;2023-06-24T04:34:53;5.30;;;4.47;;
20154;SDS011;10238;49.556;10.956;2023-06-24T04:37:41;5.43;;;4.03;;
20154;SDS011;10238;49.556;10.956;2023-06-24T04:40:30;7.65;;;4.72;;
20154;SDS011;10238;49.556;10.956;2023-06-24T04:43:17;4.63;;;4.18;;
20154;SDS011;10238;49.556;10.956;2023-06-24T04:46:05;6.80;;;4.93;;
20154;SDS011;10238;49.556;10.956;2023-06-24T04:48:52;5.28;;;4.65;;
20154;SDS011;10238;49.556;10.956;2023-06-24T04:51:40;5.63;;;4.05;;
20154;SDS011;10238;49.556;10.956;2023-06-24T04:54:29;5.18;;;4.50;;
20154;SDS011;10238;49.556;10.956;2023-06-24T04:57:24;5.95;;;5.18;;
20154;SDS011;10238;49.556;10.956;2023-06-24T05:00:14;5.90;;;5.30;;
20154;SDS011;10238;49.556;10.956;2023-06-24T05:03:02;6.38;;;5.60;;
20154;SDS011;10238;49.556;10.956;2023-06-24T05:05:50;12.55;;;7.88;;
20154;SDS011;10238;49.556;10.956;2023-06-24T05:08:38;11.95;;;6.10;;
20154;SDS011;10238;49.556;10.956;2023-06-24T05:11:25;6.68;;;5.07;;
20154;SDS011;10238;49.556;10.956;2023-06-24T05:14:14;6.93;;;4.70;;
20154;SDS011;10238;49.556;10.956;2023-06-24T05:17:02;9.82;;;6.20;;
20154;SDS011;10238;49.556;10.956;2023-06-24T05:19:50;6.88;;;5.60;;
20154;SDS011;10238;49.556;10.956;2023-06-24T05:22:38;6.80;;;5.60;;
20154;SDS011;10238;49.556;10.956;2023-06-24T05:25:25;5.82;;;5.25;;
20154;SDS011;10238;49.556;10.956;2023-06-24T05:28:13;8.00;;;7.18;;
20154;SDS011;10238;49.556;10.956;2023-06-24T05:31:01;6.22;;;5.70;;
20154;SDS011;10238;49.556;10.956;2023-06-24T05:33:49;8.45;;;7.00;;
20154;SDS011;10238;49.556;10.956;2023-06-24T05:36:37;8.38;;;7.57;;
20154;SDS011;10238;49.556;10.956;2023-06-24T05:39:25;7.57;;;6.68;;
20154;SDS011;10238;49.556;10.956;2023-06-24T05:42:12;8.52;;;7.75;;
20154;SDS011;10238;49.556;10.956;2023-06-24T05:45:00;8.98;;;6.10;;
20154;SDS011;10238;49.556;10.956;2023-06-24T05:47:49;8.73;;;7.90;;
20154;SDS011;10238;49.556;10.956;2023-06-24T05:50:37;8.63;;;6.88;;
20154;SDS011;10238;49.556;10.956;2023-06-24T05:53:24;11.80;;;10.57;;
20154;SDS011;10238;49.556;10.956;2023-06-24T05:56:12;10.10;;;9.30;;
20154;SDS011;10238;49.556;10.956;2023-06-24T05:59:00;11.82;;;10.82;;
20154;SDS011;10238;49.556;10.956;2023-06-24T06:01:47;13.00;;;12.10;;
20154;SDS011;10238;49.556;10.956;2023-06-24T06:04:37;12.13;;;11.00;;
20154;SDS011;10238;49.556;10.956;2023-06-24T06:07:26;9.82;;;8.63;;
20154;SDS011;10238;49.556;10.956;2023-06-24T06:10:13;10.07;;;7.22;;
20154;SDS011;10238;49.556;10.956;2023-06-24T06:13:03;10.50;;;7.75;;
20154;SDS011;10238;49.556;10.956;2023-06-24T06:15:51;10.05;;;9.15;;
20154;SDS011;10238;49.556;10.956;2023-06-24T06:18:38;9.93;;;8.93;;
20154;SDS011;10238;49.556;10.956;2023-06-24T06:21:27;7.30;;;6.60;;
20154;SDS011;10238;49.556;10.956;2023-06-24T06:24:15;7.70;;;7.00;;
20154;SDS011;10238;49.556;10.956;2023-06-24T06:27:03;9.50;;;8.60;;
20154;SDS011;10238;49.556;10.956;2023-06-24T06:29:52;11.20;;;10.27;;
20154;SDS011;10238;49.556;10.956;2023-06-24T06:32:40;14.93;;;13.93;;
20154;SDS011;10238;49.556;10.956;2023-06-24T06:35:28;12.13;;;11.02;;
20154;SDS011;10238;49.556;10.956;2023-06-24T06:38:17;11.95;;;11.05;;
20154;SDS011;10238;49.556;10.956;2023-06-24T06:41:05;14.93;;;13.93;;
20154;SDS011;10238;49.556;10.956;2023-06-24T06:43:52;8.40;;;7.70;;
20154;SDS011;10238;49.556;10.956;2023-06-24T06:46:40;8.18;;;7.35;;
20154;SDS011;10238;49.556;10.956;2023-06-24T06:49:28;6.93;;;6.28;;
20154;SDS011;10238;49.556;10.956;2023-06-24T06:52:15;13.02;;;12.07;;
20154;SDS011;10238;49.556;10.956;2023-06-24T06:55:05;6.75;;;6.03;;
20154;SDS011;10238;49.556;10.956;2023-06-24T06:57:53;7.53;;;6.93;;
20154;SDS011;10238;49.556;10.956;2023-06-24T07:00:42;10.80;;;10.00;;
20154;SDS011;10238;49.556;10.956;2023-06-24T07:03:29;17.00;;;16.00;;
20154;SDS011;10238;49.556;10.956;2023-06-24T07:06:17;11.60;;;10.90;;
20154;SDS011;10238;49.556;10.956;2023-06-24T07:09:05;10.32;;;8.82;;
20154;SDS011;10238;49.556;10.956;2023-06-24T07:11:54;8.93;;;8.15;;
20154;SDS011;10238;49.556;10.956;2023-06-24T07:14:43;7.57;;;6.88;;
20154;SDS011;10238;49.556;10.956;2023-06-24T07:17:31;8.18;;;7.38;;
20154;SDS011;10238;49.556;10.956;2023-06-24T07:20:19;6.68;;;6.07;;
20154;SDS011;10238;49.556;10.956;2023-06-24T07:23:07;7.13;;;6.60;;
20154;SDS011;10238;49.556;10.956;2023-06-24T07:25:56;10.10;;;9.40;;
20154;SDS011;10238;49.556;10.956;2023-06-24T07:28:50;10.35;;;9.45;;
20154;SDS011;10238;49.556;10.956;2023-06-24T07:31:52;13.10;;;12.05;;
20154;SDS011;10238;49.556;10.956;2023-06-24T07:34:40;9.82;;;8.85;;
20154;SDS011;10238;49.556;10.956;2023-06-24T07:37:27;7.13;;;6.50;;
20154;SDS011;10238;49.556;10.956;2023-06-24T07:40:15;5.38;;;4.88;;
20154;SDS011;10238;49.556;10.956;2023-06-24T07:43:04;5.60;;;5.18;;
20154;SDS011;10238;49.556;10.956;2023-06-24T07:45:53;7.55;;;6.70;;
20154;SDS011;10238;49.556;10.956;2023-06-24T07:48:41;7.30;;;6.80;;
20154;SDS011;10238;49.556;10.956;2023-06-24T07:51:28;7.28;;;6.78;;
20154;SDS011;10238;49.556;10.956;2023-06-24T07:54:16;10.05;;;9.35;;
20154;SDS011;10238;49.556;10.956;2023-06-24T07:57:03;7.70;;;6.88;;
20154;SDS011;10238;49.556;10.956;2023-06-24T07:59:51;11.15;;;10.40;;
20154;SDS011;10238;49.556;10.956;2023-06-24T08:02:41;7.47;;;6.93;;
20154;SDS011;10238;49.556;10.956;2023-06-24T08:05:29;5.00;;;4.50;;
20154;SDS011;10238;49.556;10.956;2023-06-24T08:08:17;5.65;;;5.25;;
20154;SDS011;10238;49.556;10.956;2023-06-24T08:11:06;6.40;;;5.88;;
20154;SDS011;10238;49.556;10.956;2023-06-24T08:13:54;6.75;;;6.03;;
20154;SDS011;10238;49.556;10.956;2023-06-24T08:16:41;6.47;;;5.80;;
20154;SDS011;10238;49.556;10.956;2023-06-24T08:19:31;6.47;;;5.97;;
20154;SDS011;10238;49.556;10.956;2023-06-24T08:22:18;6.63;;;6.03;;
20154;SDS011;10238;49.556;10.956;2023-06-24T08:25:06;10.32;;;9.52;;
20154;SDS011;10238;49.556;10.956;2023-06-24T08:27:55;14.25;;;13.38;;
20154;SDS011;10238;49.556;10.956;2023-06-24T08:30:43;15.75;;;14.75;;
20154;SDS011;10238;49.556;10.956;2023-06-24T08:33:30;12.60;;;11.80;;
20154;SDS011;10238;49.556;10.956;2023-06-24T08:36:20;7.50;;;6.95;;
20154;SDS011;10238;49.556;10.956;2023-06-24T08:39:09;6.43;;;5.75;;
20154;SDS011;10238;49.556;10.956;2023-06-24T08:41:57;5.30;;;4.00;;
20154;SDS011;10238;49.556;10.956;2023-06-24T08:44:45;6.03;;;5.38;;
20154;SDS011;10238;49.556;10.956;2023-06-24T08:47:33;6.35;;;5.90;;
20154;SDS011;10238;49.556;10.956;2023-06-24T08:50:22;22.30;;;21.15;;
20154;SDS011;10238;49.556;10.956;2023-06-24T08:53:19;10.40;;;9.65;;
20154;SDS011;10238;49.556;10.956;2023-06-24T08:56:08;7.53;;;7.03;;
20154;SDS011;10238;49.556;10.956;2023-06-24T08:58:57;13.65;;;12.48;;
20154;SDS011;10238;49.556;10.956;2023-06-24T09:01:45;18.80;;;17.75;;
20154;SDS011;10238;49.556;10.956;2023-06-24T09:04:34;17.58;;;16.45;;
20154;SDS011;10238;49.556;10.956;2023-06-24T09:07:27;17.48;;;16.48;;
20154;SDS011;10238;49.556;10.956;2023-06-24T09:10:30;12.77;;;11.95;;
20154;SDS011;10238;49.556;10.956;2023-06-24T09:13:18;13.38;;;12.60;;
20154;SDS011;10238;49.556;10.956;2023-06-24T09:16:12;13.52;;;12.82;;
20154;SDS011;10238;49.556;10.956;2023-06-24T09:19:02;17.70;;;16.80;;
20154;SDS011;10238;49.556;10.956;2023-06-24T09:21:50;13.43;;;12.73;;
20154;SDS011;10238;49.556;10.956;2023-06-24T09:24:38;9.68;;;9.15;;
20154;SDS011;10238;49.556;10.956;2023-06-24T09:27:30;5.28;;;4.78;;
20154;SDS011;10238;49.556;10.956;2023-06-24T09:30:19;5.53;;;5.03;;
20154;SDS011;10238;49.556;10.956;2023-06-24T09:33:10;6.25;;;5.75;;
20154;SDS011;10238;49.556;10.956;2023-06-24T09:35:59;5.13;;;4.72;;
20154;SDS011;10238;49.556;10.956;2023-06-24T09:38:49;5.95;;;3.58;;
20154;SDS011;10238;49.556;10.956;2023-06-24T09:41:39;5.53;;;3.38;;
20154;SDS011;10238;49.556;10.956;2023-06-24T09:44:30;5.95;;;3.92;;
20154;SDS011;10238;49.556;10.956;2023-06-24T09:47:18;3.85;;;3.55;;
20154;SDS011;10238;49.556;10.956;2023-06-24T09:50:06;3.92;;;3.63;;
20154;SDS011;10238;49.556;10.956;2023-06-24T09:52:54;3.75;;;3.45;;
20154;SDS011;10238;49.556;10.956;2023-06-24T09:55:45;4.20;;;3.80;;
20154;SDS011;10238;49.556;10.956;2023-06-24T09:58:35;4.00;;;3.70;;
20154;SDS011;10238;49.556;10.956;2023-06-24T10:01:25;4.97;;;4.35;;
20154;SDS011;10238;49.556;10.956;2023-06-24T10:04:14;5.32;;;4.93;;
20154;SDS011;10238;49.556;10.956;2023-06-24T10:07:05;7.07;;;6.60;;
20154;SDS011;10238;49.556;10.956;2023-06-24T10:09:53;7.60;;;7.10;;
20154;SDS011;10238;49.556;10.956;2023-06-24T10:12:41;5.82;;;5.30;;
20154;SDS011;10238;49.556;10.956;2023-06-24T10:15:30;5.47;;;5.07;;
20154;SDS011;10238;49.556;10.956;2023-06-24T10:18:35;6.10;;;5.68;;
20154;SDS011;10238;49.556;10.956;2023-06-24T10:21:24;5.00;;;4.60;;
20154;SDS011;10238;49.556;10.956;2023-06-24T10:24:32;4.82;;;4.43;;
20154;SDS011;10238;49.556;10.956;2023-06-24T10:27:23;5.22;;;4.82;;
20154;SDS011;10238;49.556;10.956;2023-06-24T10:30:16;7.47;;;7.05;;
20154;SDS011;10238;49.556;10.956;2023-06-24T10:33:08;7.68;;;7.22;;
20154;SDS011;10238;49.556;10.956;2023-06-24T10:35:58;7.50;;;7.00;;
20154;SDS011;10238;49.556;10.956;2023-06-24T10:38:54;8.30;;;7.70;;
20154;SDS011;10238;49.556;10.956;2023-06-24T10:41:42;7.53;;;6.95;;
20154;SDS011;10238;49.556;10.956;2023-06-24T10:44:42;6.95;;;6.55;;
20154;SDS011;10238;49.556;10.956;2023-06-24T10:47:32;7.50;;;7.05;;
20154;SDS011;10238;49.556;10.956;2023-06-24T10:50:20;7.15;;;6.65;;
20154;SDS011;10238;49.556;10.956;2023-06-24T10:53:11;7.13;;;6.57;;
20154;SDS011;10238;49.556;10.956;2023-06-24T10:56:00;5.72;;;4.80;;
20154;SDS011;10238;49.556;10.956;2023-06-24T10:58:55;4.32;;;4.03;;
20154;SDS011;10238;49.556;10.956;2023-06-24T11:01:51;3.90;;;3.35;;
20154;SDS011;10238;49.556;10.956;2023-06-24T11:04:42;4.40;;;2.75;;
20154;SDS011;10238;49.556;10.956;2023-06-24T11:07:32;3.88;;;3.58;;
20154;SDS011;10238;49.556;10.956;2023-06-24T11:10:22;3.90;;;3.60;;
20154;SDS011;10238;49.556;10.956;2023-06-24T11:13:11;3.80;;;3.50;;
20154;SDS011;10238;49.556;10.956;2023-06-24T11:16:00;3.67;;;3.30;;
20154;SDS011;10238;49.556;10.956;2023-06-24T11:18:48;4.97;;;3.65;;
20154;SDS011;10238;49.556;10.956;2023-06-24T11:21:35;3.53;;;3.22;;
20154;SDS011;10238;49.556;10.956;2023-06-24T11:24:23;3.13;;;2.92;;
20154;SDS011;10238;49.556;10.956;2023-06-24T11:27:12;4.38;;;3.78;;
20154;SDS011;10238;49.556;10.956;2023-06-24T11:30:00;3.70;;;3.40;;
20154;SDS011;10238;49.556;10.956;2023-06-24T11:32:48;3.92;;;3.25;;
20154;SDS011;10238;49.556;10.956;2023-06-24T11:35:36;3.28;;;3.03;;
20154;SDS011;10238;49.556;10.956;2023-06-24T11:38:24;3.47;;;3.15;;
20154;SDS011;10238;49.556;10.956;2023-06-24T11:41:20;3.28;;;2.97;;
20154;SDS011;10238;49.556;10.956;2023-06-24T11:44:10;3.50;;;2.92;;
20154;SDS011;10238;49.556;10.956;2023-06-24T11:47:02;3.10;;;2.80;;
20154;SDS011;10238;49.556;10.956;2023-06-24T11:49:54;3.40;;;3.00;;
20154;SDS011;10238;49.556;10.956;2023-06-24T11:52:44;7.35;;;3.42;;
20154;SDS011;10238;49.556;10.956;2023-06-24T11:55:35;3.30;;;3.00;;
20154;SDS011;10238;49.556;10.956;2023-06-24T11:58:22;3.08;;;2.85;;
20154;SDS011;10238;49.556;10.956;2023-06-24T12:01:11;3.72;;;3.42;;
20154;SDS011;10238;49.556;10.956;2023-06-24T12:03:59;3.05;;;2.85;;
20154;SDS011;10238;49.556;10.956;2023-06-24T12:06:48;3.10;;;2.90;;
20154;SDS011;10238;49.556;10.956;2023-06-24T12:09:36;3.20;;;3.00;;
20154;SDS011;10238;49.556;10.956;2023-06-24T12:12:25;3.50;;;3.20;;
20154;SDS011;10238;49.556;10.956;2023-06-24T12:15:12;5.80;;;3.45;;
20154;SDS011;10238;49.556;10.956;2023-06-24T12:18:01;4.22;;;3.50;;
20154;SDS011;10238;49.556;10.956;2023-06-24T12:20:50;4.22;;;3.83;;
20154;SDS011;10238;49.556;10.956;2023-06-24T12:23:38;4.28;;;3.90;;
20154;SDS011;10238;49.556;10.956;2023-06-24T12:26:25;4.50;;;3.83;;
20154;SDS011;10238;49.556;10.956;2023-06-24T12:29:13;4.38;;;4.07;;
20154;SDS011;10238;49.556;10.956;2023-06-24T12:32:01;4.53;;;4.22;;
20154;SDS011;10238;49.556;10.956;2023-06-24T12:34:50;4.50;;;4.10;;
20154;SDS011;10238;49.556;10.956;2023-06-24T12:37:38;4.75;;;4.28;;
20154;SDS011;10238;49.556;10.956;2023-06-24T12:40:25;4.35;;;4.03;;
20154;SDS011;10238;49.556;10.956;2023-06-24T12:43:13;5.07;;;4.55;;
20154;SDS011;10238;49.556;10.956;2023-06-24T12:46:02;4.88;;;4.57;;
20154;SDS011;10238;49.556;10.956;2023-06-24T12:48:49;4.38;;;3.97;;
20154;SDS011;10238;49.556;10.956;2023-06-24T12:51:38;5.43;;;5.03;;
20154;SDS011;10238;49.556;10.956;2023-06-24T12:54:26;5.03;;;4.63;;
20154;SDS011;10238;49.556;10.956;2023-06-24T12:57:14;6.47;;;6.03;;
20154;SDS011;10238;49.556;10.956;2023-06-24T13:00:02;7.15;;;6.70;;
20154;SDS011;10238;49.556;10.956;2023-06-24T13:02:52;5.95;;;5.53;;
20154;SDS011;10238;49.556;10.956;2023-06-24T13:05:42;6.07;;;5.78;;
20154;SDS011;10238;49.556;10.956;2023-06-24T13:08:31;4.43;;;4.07;;
20154;SDS011;10238;49.556;10.956;2023-06-24T13:11:18;4.28;;;3.97;;
20154;SDS011;10238;49.556;10.956;2023-06-24T13:14:06;5.95;;;4.93;;
20154;SDS011;10238;49.556;10.956;2023-06-24T13:16:55;5.03;;;4.63;;
20154;SDS011;10238;49.556;10.956;2023-06-24T13:19:43;7.80;;;7.25;;
20154;SDS011;10238;49.556;10.956;2023-06-24T13:22:30;5.20;;;4.63;;
20154;SDS011;10238;49.556;10.956;2023-06-24T13:25:20;10.93;;;10.32;;
20154;SDS011;10238;49.556;10.956;2023-06-24T13:28:08;11.25;;;10.60;;
20154;SDS011;10238;49.556;10.956;2023-06-24T13:30:55;9.95;;;9.38;;
20154;SDS011;10238;49.556;10.956;2023-06-24T13:33:43;4.70;;;4.30;;
20154;SDS011;10238;49.556;10.956;2023-06-24T13:36:31;5.32;;;4.95;;
20154;SDS011;10238;49.556;10.956;2023-06-24T13:39:22;4.43;;;4.05;;
20154;SDS011;10238;49.556;10.956;2023-06-24T13:42:12;4.80;;;4.40;;
20154;SDS011;10238;49.556;10.956;2023-06-24T13:44:59;4.88;;;4.13;;
20154;SDS011;10238;49.556;10.956;2023-06-24T13:47:48;5.10;;;4.70;;
20154;SDS011;10238;49.556;10.956;2023-06-24T13:50:36;5.60;;;5.22;;
20154;SDS011;10238;49.556;10.956;2023-06-24T13:53:24;5.72;;;5.32;;
20154;SDS011;10238;49.556;10.956;2023-06-24T13:56:11;8.93;;;8.32;;
20154;SDS011;10238;49.556;10.956;2023-06-24T13:59:00;5.53;;;5.03;;
20154;SDS011;10238;49.556;10.956;2023-06-24T14:01:48;5.85;;;5.25;;
20154;SDS011;10238;49.556;10.956;2023-06-24T14:04:37;5.57;;;4.97;;
20154;SDS011;10238;49.556;10.956;2023-06-24T14:07:25;5.38;;;4.97;;
20154;SDS011;10238;49.556;10.956;2023-06-24T14:10:13;5.53;;;5.18;;
20154;SDS011;10238;49.556;10.956;2023-06-24T14:13:02;8.35;;;7.75;;
20154;SDS011;10238;49.556;10.956;2023-06-24T14:15:52;8.43;;;7.93;;
20154;SDS011;10238;49.556;10.956;2023-06-24T14:18:39;4.55;;;4.18;;
20154;SDS011;10238;49.556;10.956;2023-06-24T14:21:28;5.07;;;4.57;;
20154;SDS011;10238;49.556;10.956;2023-06-24T14:24:17;5.13;;;4.72;;
20154;SDS011;10238;49.556;10.956;2023-06-24T14:27:05;7.72;;;7.20;;
20154;SDS011;10238;49.556;10.956;2023-06-24T14:29:54;5.63;;;5.22;;
20154;SDS011;10238;49.556;10.956;2023-06-24T14:32:43;5.15;;;4.75;;
20154;SDS011;10238;49.556;10.956;2023-06-24T14:35:31;5.47;;;5.10;;
20154;SDS011;10238;49.556;10.956;2023-06-24T14:38:19;7.40;;;5.95;;
20154;SDS011;10238;49.556;10.956;2023-06-24T14:41:07;3.85;;;3.50;;
20154;SDS011;10238;49.556;10.956;2023-06-24T14:43:54;5.10;;;3.70;;
20154;SDS011;10238;49.556;10.956;2023-06-24T14:46:42;5.30;;;3.60;;
20154;SDS011;10238;49.556;10.956;2023-06-24T14:49:31;3.65;;;3.40;;
20154;SDS011;10238;49.556;10.956;2023-06-24T14:52:19;4.57;;;3.97;;
20154;SDS011;10238;49.556;10.956;2023-06-24T14:55:07;3.80;;;3.40;;
20154;SDS011;10238;49.556;10.956;2023-06-24T14:57:56;4.22;;;3.83;;
20154;SDS011;10238;49.556;10.956;2023-06-24T15:00:44;5.63;;;3.58;;
20154;SDS011;10238;49.556;10.956;2023-06-24T15:03:32;4.40;;;4.00;;
20154;SDS011;10238;49.556;10.956;2023-06-24T15:06:22;3.72;;;3.30;;
20154;SDS011;10238;49.556;10.956;2023-06-24T15:09:09;3.47;;;3.15;;
20154;SDS011;10238;49.556;10.956;2023-06-24T15:11:57;4.88;;;3.53;;
20154;SDS011;10238;49.556;10.956;2023-06-24T15:14:44;5.40;;;3.65;;
20154;SDS011;10238;49.556;10.956;2023-06-24T15:17:33;4.30;;;3.67;;
20154;SDS011;10238;49.556;10.956;2023-06-24T15:20:26;3.65;;;2.90;;
20154;SDS011;10238;49.556;10.956;2023-06-24T15:23:15;3.08;;;2.80;;
20154;SDS011;10238;49.556;10.956;2023-06-24T15:26:03;3.30;;;3.00;;
20154;SDS011;10238;49.556;10.956;2023-06-24T15:28:51;3.40;;;3.10;;
20154;SDS011;10238;49.556;10.956;2023-06-24T15:31:39;4.30;;;3.35;;
20154;SDS011;10238;49.556;10.956;2023-06-24T15:34:27;4.03;;;3.72;;
20154;SDS011;10238;49.556;10.956;2023-06-24T15:37:16;3.92;;;3.55;;
20154;SDS011;10238;49.556;10.956;2023-06-24T15:40:06;4.28;;;3.47;;
20154;SDS011;10238;49.556;10.956;2023-06-24T15:42:55;3.90;;;3.55;;
20154;SDS011;10238;49.556;10.956;2023-06-24T15:45:46;3.75;;;3.45;;
20154;SDS011;10238;49.556;10.956;2023-06-24T15:48:34;3.90;;;3.60;;
20154;SDS011;10238;49.556;10.956;2023-06-24T15:51:23;3.28;;;3.08;;
20154;SDS011;10238;49.556;10.956;2023-06-24T15:54:13;4.88;;;3.90;;
20154;SDS011;10238;49.556;10.956;2023-06-24T15:57:03;7.25;;;4.03;;
20154;SDS011;10238;49.556;10.956;2023-06-24T15:59:52;4.15;;;3.58;;
20154;SDS011;10238;49.556;10.956;2023-06-24T16:02:41;7.68;;;4.80;;
20154;SDS011;10238;49.556;10.956;2023-06-24T16:05:29;4.53;;;4.20;;
20154;SDS011;10238;49.556;10.956;2023-06-24T16:08:17;4.90;;;4.50;;
20154;SDS011;10238;49.556;10.956;2023-06-24T16:11:07;5.70;;;4.82;;
20154;SDS011;10238;49.556;10.956;2023-06-24T16:13:56;4.20;;;3.80;;
20154;SDS011;10238;49.556;10.956;2023-06-24T16:16:44;4.40;;;3.92;;
20154;SDS011;10238;49.556;10.956;2023-06-24T16:19:33;3.60;;;3.30;;
20154;SDS011;10238;49.556;10.956;2023-06-24T16:22:21;3.78;;;3.47;;
20154;SDS011;10238;49.556;10.956;2023-06-24T16:25:09;4.93;;;4.50;;
20154;SDS011;10238;49.556;10.956;2023-06-24T16:27:57;4.90;;;4.50;;
20154;SDS011;10238;49.556;10.956;2023-06-24T16:30:47;4.70;;;4.30;;
20154;SDS011;10238;49.556;10.956;2023-06-24T16:33:35;4.28;;;3.97;;
20154;SDS011;10238;49.556;10.956;2023-06-24T16:36:23;5.63;;;5.13;;
20154;SDS011;10238;49.556;10.956;2023-06-24T16:39:12;5.10;;;4.70;;
20154;SDS011;10238;49.556;10.956;2023-06-24T16:42:00;5.88;;;5.38;;
20154;SDS011;10238;49.556;10.956;2023-06-24T16:44:48;7.45;;;6.95;;
20154;SDS011;10238;49.556;10.956;2023-06-24T16:47:38;7.00;;;6.50;;